createdAt,value
2022-11-18T00:03:10.440Z,2.60
2022-11-18T00:08:13.930Z,2.95
2022-11-18T00:13:36.955Z,2.40
2022-11-18T00:18:40.623Z,2.42
2022-11-18T00:23:44.095Z,2.97
2022-11-18T00:28:48.910Z,2.85
2022-11-18T00:33:52.420Z,2.80
2022-11-18T00:38:56.300Z,2.40
2022-11-18T00:44:05.076Z,2.17
2022-11-18T00:49:11.737Z,2.35
2022-11-18T00:54:15.242Z,2.13
2022-11-18T00:59:20.487Z,2.20
2022-11-18T01:04:24.356Z,2.25
2022-11-18T01:09:27.854Z,2.40
2022-11-18T01:14:32.851Z,2.22
2022-11-18T01:19:36.565Z,2.95
2022-11-18T01:24:40.024Z,2.75
2022-11-18T01:29:44.890Z,3.30
2022-11-18T01:34:48.425Z,2.55
2022-11-18T01:39:51.982Z,2.40
2022-11-18T01:45:09.707Z,2.47
2022-11-18T01:50:16.204Z,2.53
2022-11-18T01:55:24.851Z,2.50
2022-11-18T02:00:29.691Z,2.65
2022-11-18T02:05:34.952Z,3.03
2022-11-18T02:10:38.461Z,2.75
2022-11-18T02:15:52.233Z,2.50
2022-11-18T02:21:03.836Z,2.72
2022-11-18T02:26:39.219Z,2.97
2022-11-18T02:31:50.937Z,2.35
2022-11-18T02:36:59.050Z,2.33
2022-11-18T02:42:05.244Z,2.63
2022-11-18T02:47:15.023Z,2.17
2022-11-18T02:52:20.443Z,2.88
2022-11-18T02:57:27.357Z,2.65
2022-11-18T03:02:41.699Z,2.47
2022-11-18T03:07:49.232Z,2.80
2022-11-18T03:13:03.630Z,2.75
2022-11-18T03:18:17.746Z,2.10
2022-11-18T03:23:29.299Z,3.00
2022-11-18T03:28:37.282Z,2.42
2022-11-18T03:33:46.947Z,2.70
2022-11-18T03:38:56.049Z,2.88
2022-11-18T03:44:06.734Z,3.03
2022-11-18T03:49:16.806Z,2.22
2022-11-18T03:54:25.384Z,1.63
2022-11-18T03:59:34.481Z,2.45
2022-11-18T04:04:39.963Z,2.72
2022-11-18T04:09:48.695Z,2.75
2022-11-18T04:14:55.482Z,2.60
2022-11-18T04:20:00.661Z,3.08
2022-11-18T04:25:04.378Z,3.45
2022-11-18T04:30:09.040Z,3.15
2022-11-18T04:35:14.067Z,3.58
2022-11-18T04:40:17.961Z,3.15
2022-11-18T04:45:21.451Z,3.60
2022-11-18T04:50:26.307Z,2.95
2022-11-18T04:55:29.938Z,4.38
2022-11-18T05:00:33.419Z,3.92
2022-11-18T05:05:38.271Z,3.60
2022-11-18T05:10:41.822Z,3.33
2022-11-18T05:15:45.326Z,4.38
2022-11-18T05:20:50.226Z,3.03
2022-11-18T05:25:56.012Z,3.83
2022-11-18T05:31:08.439Z,3.53
2022-11-18T05:36:15.645Z,3.90
2022-11-18T05:41:33.379Z,3.30
2022-11-18T05:46:36.984Z,3.35
2022-11-18T05:51:41.783Z,3.17
2022-11-18T05:56:46.326Z,5.38
2022-11-18T06:01:53.266Z,4.25
2022-11-18T06:07:04.469Z,3.85
2022-11-18T06:12:09.137Z,3.17
2022-11-18T06:17:17.443Z,3.55
2022-11-18T06:22:22.545Z,3.25
2022-11-18T06:27:26.037Z,3.97
2022-11-18T06:32:29.502Z,3.80
2022-11-18T06:37:34.457Z,3.38
2022-11-18T06:42:55.336Z,3.53
2022-11-18T06:48:00.282Z,3.58
2022-11-18T06:53:05.139Z,3.28
2022-11-18T06:58:08.717Z,3.80
2022-11-18T07:03:12.212Z,4.82
2022-11-18T07:08:17.088Z,3.80
2022-11-18T07:13:20.945Z,3.83
2022-11-18T07:18:24.561Z,3.85
2022-11-18T07:23:29.604Z,3.42
2022-11-18T07:28:33.709Z,3.00
2022-11-18T07:33:38.241Z,3.50
2022-11-18T07:38:43.326Z,3.65
2022-11-18T07:43:48.228Z,4.15
2022-11-18T07:48:53.865Z,3.50
2022-11-18T07:53:58.838Z,3.65
2022-11-18T09:17:53.372Z,5.03
2022-11-18T09:22:56.937Z,4.65
2022-11-18T09:28:00.521Z,5.00
2022-11-18T09:33:07.238Z,5.05
2022-11-18T09:38:11.009Z,4.80
2022-11-18T09:43:21.994Z,4.70
2022-11-18T09:48:47.854Z,5.07
2022-11-18T09:53:51.486Z,5.22
2022-11-18T09:58:55.966Z,4.93
2022-11-18T10:04:01.040Z,5.60
2022-11-18T10:09:25.343Z,5.30
2022-11-18T10:14:45.252Z,5.40
2022-11-18T10:19:56.140Z,5.22
2022-11-18T10:25:00.911Z,5.45
2022-11-18T10:30:14.081Z,5.03
2022-11-18T10:35:27.555Z,4.30
2022-11-18T10:40:32.896Z,4.32
2022-11-18T10:45:36.825Z,4.05
2022-11-18T10:50:43.422Z,4.57
2022-11-18T10:56:00.153Z,6.35
2022-11-18T11:01:08.939Z,5.10
2022-11-18T11:06:29.986Z,4.30
2022-11-18T11:11:36.369Z,3.65
2022-11-18T11:16:48.129Z,3.95
2022-11-18T11:21:53.620Z,13.45
2022-11-18T11:32:41.671Z,4.75
2022-11-18T11:37:55.187Z,3.83
2022-11-18T11:43:21.002Z,4.30
2022-11-18T11:48:36.464Z,3.50
2022-11-18T11:53:53.810Z,3.83
2022-11-18T11:59:14.500Z,4.88
2022-11-18T12:04:38.787Z,4.35
2022-11-18T12:09:58.686Z,7.85
2022-11-18T12:15:23.988Z,4.85
2022-11-18T12:20:43.550Z,4.78
2022-11-18T12:26:04.141Z,5.32
2022-11-18T12:31:38.693Z,5.25
2022-11-18T12:36:42.470Z,5.07
2022-11-18T12:42:15.759Z,4.85
2022-11-18T12:47:58.088Z,5.45
2022-11-18T12:53:01.723Z,5.13
2022-11-18T12:58:23.320Z,5.03
2022-11-18T13:03:30.688Z,5.15
2022-11-18T13:08:35.127Z,5.30
2022-11-18T13:13:41.287Z,4.15
2022-11-18T13:18:52.477Z,4.10
2022-11-18T13:29:23.426Z,4.03
2022-11-18T13:34:28.778Z,3.33
2022-11-18T13:39:33.790Z,4.43
2022-11-18T13:44:39.797Z,4.00
2022-11-18T13:49:53.764Z,4.50
2022-11-18T13:55:00.246Z,3.72
2022-11-18T14:00:08.748Z,4.40
2022-11-18T14:05:21.705Z,3.53
2022-11-18T14:10:35.366Z,3.70
2022-11-18T14:15:44.804Z,4.28
2022-11-18T14:20:53.136Z,3.67
2022-11-18T14:26:16.056Z,4.53
2022-11-18T14:31:41.686Z,4.00
2022-11-18T14:36:45.659Z,3.75
2022-11-18T14:41:49.438Z,4.72
2022-11-18T14:46:58.385Z,4.60
2022-11-18T14:52:22.127Z,4.10
2022-11-18T14:57:25.875Z,4.00
2022-11-18T15:02:31.012Z,6.38
2022-11-18T15:07:35.427Z,4.95
2022-11-18T15:12:39.340Z,3.60
2022-11-18T15:17:45.164Z,4.93
2022-11-18T15:22:50.074Z,7.53
2022-11-18T15:27:53.823Z,6.70
2022-11-18T15:32:58.965Z,6.20
2022-11-18T15:38:03.327Z,6.82
2022-11-18T15:43:06.906Z,7.60
2022-11-18T15:48:12.235Z,5.90
2022-11-18T15:53:16.272Z,5.28
2022-11-18T15:58:20.539Z,6.53
2022-11-18T16:03:27.686Z,7.45
2022-11-18T16:08:31.640Z,7.75
2022-11-18T16:13:35.076Z,8.32
2022-11-18T16:18:40.939Z,8.38
2022-11-18T16:23:44.711Z,8.88
2022-11-18T16:28:48.429Z,8.07
2022-11-18T16:33:53.275Z,7.70
2022-11-18T16:38:57.050Z,8.27
2022-11-18T16:44:03.382Z,8.07
2022-11-18T16:49:11.909Z,8.77
2022-11-18T16:54:18.947Z,8.68
2022-11-18T16:59:23.776Z,10.75
2022-11-18T17:04:30.446Z,6.78
2022-11-18T17:09:34.032Z,10.40
2022-11-18T17:14:38.681Z,10.32
2022-11-18T17:19:43.713Z,8.40
2022-11-18T17:24:47.340Z,13.10
2022-11-18T17:29:51.417Z,9.07
2022-11-18T17:34:56.359Z,9.80
2022-11-18T17:39:59.866Z,12.20
2022-11-18T17:45:03.698Z,11.95
2022-11-18T17:50:09.833Z,14.82
2022-11-18T17:55:13.374Z,18.27
2022-11-18T18:00:18.282Z,20.50
2022-11-18T18:05:23.292Z,19.75
2022-11-18T18:10:27.689Z,20.33
2022-11-18T18:15:31.524Z,20.73
2022-11-18T18:20:36.714Z,18.55
2022-11-18T18:25:40.238Z,19.23
2022-11-18T18:30:43.876Z,18.13
2022-11-18T18:35:48.726Z,16.23
2022-11-18T18:40:52.234Z,14.75
2022-11-18T18:46:18.103Z,13.18
2022-11-18T18:51:23.181Z,14.77
2022-11-18T18:56:27.544Z,16.08
2022-11-18T19:01:31.623Z,14.93
2022-11-18T19:12:18.316Z,15.57
2022-11-18T19:22:29.902Z,16.48
2022-11-18T19:27:34.026Z,16.98
2022-11-18T19:32:37.912Z,16.65
2022-11-18T19:37:42.994Z,15.85
2022-11-18T19:42:47.818Z,17.67
2022-11-18T19:47:51.466Z,16.17
2022-11-18T19:52:57.995Z,15.18
2022-11-18T19:58:01.928Z,14.55
2022-11-18T20:03:06.240Z,14.68
2022-11-18T20:08:11.184Z,13.50
2022-11-18T20:13:14.892Z,12.73
2022-11-18T20:18:22.267Z,12.20
2022-11-18T20:23:27.211Z,10.82
2022-11-18T20:28:30.896Z,11.73
2022-11-18T20:33:35.491Z,11.18
2022-11-18T20:38:41.171Z,11.25
2022-11-18T20:43:45.006Z,9.95
2022-11-18T20:48:49.254Z,10.93
2022-11-18T20:53:56.672Z,11.90
2022-11-18T20:59:00.341Z,11.88
2022-11-18T21:04:04.687Z,11.15
2022-11-18T21:09:09.620Z,11.98
2022-11-18T21:14:25.290Z,11.70
2022-11-18T21:19:30.060Z,11.90
2022-11-18T21:24:35.928Z,12.27
2022-11-18T21:29:41.513Z,11.43
2022-11-18T21:34:45.172Z,10.70
2022-11-18T21:39:50.090Z,12.10
2022-11-18T21:44:53.679Z,13.80
2022-11-18T21:49:57.234Z,12.93
2022-11-18T21:55:02.510Z,13.40
2022-11-18T22:00:07.903Z,13.02
2022-11-18T22:05:15.521Z,13.77
2022-11-18T22:10:20.489Z,14.48
2022-11-18T22:15:24.793Z,13.90
2022-11-18T22:20:28.433Z,13.95
2022-11-18T22:25:33.281Z,14.02
2022-11-18T22:30:37.365Z,16.17
2022-11-18T22:35:40.858Z,15.50
2022-11-18T22:40:45.813Z,14.50
2022-11-18T22:45:49.327Z,14.77
2022-11-18T22:50:57.301Z,16.52
2022-11-18T22:56:07.145Z,14.85
2022-11-18T23:01:13.098Z,14.52
2022-11-18T23:06:16.718Z,16.25
2022-11-18T23:11:35.913Z,14.70
2022-11-18T23:16:41.515Z,12.98
2022-11-18T23:21:45.519Z,12.52
2022-11-18T23:26:50.455Z,12.57
2022-11-18T23:31:54.067Z,13.13
2022-11-18T23:36:57.520Z,12.48
2022-11-18T23:42:02.860Z,12.32
2022-11-18T23:47:06.472Z,11.73
2022-11-18T23:52:09.961Z,12.23
2022-11-18T23:57:14.768Z,11.88
